sensor_id;sensor_type;location;lat;lon;timestamp;temperature;humidity
23089;DHT22;11713;48.506;8.966;2023-12-20T00:01:51;5.90;99.90
23089;DHT22;11713;48.506;8.966;2023-12-20T00:04:18;5.90;99.90
23089;DHT22;11713;48.506;8.966;2023-12-20T00:06:44;5.90;99.90
23089;DHT22;11713;48.506;8.966;2023-12-20T00:09:10;5.90;99.90
23089;DHT22;11713;48.506;8.966;2023-12-20T00:11:36;5.90;99.90
23089;DHT22;11713;48.506;8.966;2023-12-20T00:14:03;5.90;99.90
23089;DHT22;11713;48.506;8.966;2023-12-20T00:16:29;5.90;99.90
23089;DHT22;11713;48.506;8.966;2023-12-20T00:18:57;5.90;99.90
23089;DHT22;11713;48.506;8.966;2023-12-20T00:21:23;5.90;99.90
23089;DHT22;11713;48.506;8.966;2023-12-20T00:23:49;5.90;99.90
23089;DHT22;11713;48.506;8.966;2023-12-20T00:26:15;5.90;99.90
23089;DHT22;11713;48.506;8.966;2023-12-20T00:28:41;5.90;99.90
23089;DHT22;11713;48.506;8.966;2023-12-20T00:31:08;5.90;99.90
23089;DHT22;11713;48.506;8.966;2023-12-20T00:33:34;5.90;99.90
23089;DHT22;11713;48.506;8.966;2023-12-20T00:35:59;5.90;99.90
23089;DHT22;11713;48.506;8.966;2023-12-20T00:38:26;5.90;99.90
23089;DHT22;11713;48.506;8.966;2023-12-20T00:40:52;5.90;99.90
23089;DHT22;11713;48.506;8.966;2023-12-20T00:43:18;5.90;99.90
23089;DHT22;11713;48.506;8.966;2023-12-20T00:45:44;6.00;99.90
23089;DHT22;11713;48.506;8.966;2023-12-20T00:48:09;6.00;99.90
23089;DHT22;11713;48.506;8.966;2023-12-20T00:50:35;6.00;99.90
23089;DHT22;11713;48.506;8.966;2023-12-20T00:53:01;6.00;99.90
23089;DHT22;11713;48.506;8.966;2023-12-20T00:55:27;6.00;99.90
23089;DHT22;11713;48.506;8.966;2023-12-20T00:57:53;6.00;99.90
23089;DHT22;11713;48.506;8.966;2023-12-20T01:00:19;6.00;99.90
23089;DHT22;11713;48.506;8.966;2023-12-20T01:02:45;6.00;99.90
23089;DHT22;11713;48.506;8.966;2023-12-20T01:05:14;6.00;99.90
23089;DHT22;11713;48.506;8.966;2023-12-20T01:07:40;6.00;99.90
23089;DHT22;11713;48.506;8.966;2023-12-20T01:10:06;6.00;99.90
23089;DHT22;11713;48.506;8.966;2023-12-20T01:12:32;6.00;99.90
23089;DHT22;11713;48.506;8.966;2023-12-20T01:14:58;5.90;99.90
23089;DHT22;11713;48.506;8.966;2023-12-20T01:17:24;5.90;99.90
23089;DHT22;11713;48.506;8.966;2023-12-20T01:19:49;5.90;99.90
23089;DHT22;11713;48.506;8.966;2023-12-20T01:22:15;5.90;99.90
23089;DHT22;11713;48.506;8.966;2023-12-20T01:24:41;5.90;99.90
23089;DHT22;11713;48.506;8.966;2023-12-20T01:27:08;6.00;99.90
23089;DHT22;11713;48.506;8.966;2023-12-20T01:29:34;5.90;99.90
23089;DHT22;11713;48.506;8.966;2023-12-20T01:32:00;5.90;99.90
23089;DHT22;11713;48.506;8.966;2023-12-20T01:34:26;5.90;99.90
23089;DHT22;11713;48.506;8.966;2023-12-20T01:36:52;5.90;99.90
23089;DHT22;11713;48.506;8.966;2023-12-20T01:39:17;5.90;99.90
23089;DHT22;11713;48.506;8.966;2023-12-20T01:41:43;5.90;99.90
23089;DHT22;11713;48.506;8.966;2023-12-20T01:44:09;5.80;99.90
23089;DHT22;11713;48.506;8.966;2023-12-20T01:46:35;5.80;99.90
23089;DHT22;11713;48.506;8.966;2023-12-20T01:49:01;5.80;99.90
23089;DHT22;11713;48.506;8.966;2023-12-20T01:51:27;5.80;99.90
23089;DHT22;11713;48.506;8.966;2023-12-20T01:53:55;5.80;99.90
23089;DHT22;11713;48.506;8.966;2023-12-20T01:56:22;5.80;99.90
23089;DHT22;11713;48.506;8.966;2023-12-20T01:58:48;5.80;99.90
23089;DHT22;11713;48.506;8.966;2023-12-20T02:01:15;5.80;99.90
23089;DHT22;11713;48.506;8.966;2023-12-20T02:03:41;5.80;99.90
23089;DHT22;11713;48.506;8.966;2023-12-20T02:06:08;5.80;99.90
23089;DHT22;11713;48.506;8.966;2023-12-20T02:08:35;5.70;99.90
23089;DHT22;11713;48.506;8.966;2023-12-20T02:11:01;5.70;99.90
23089;DHT22;11713;48.506;8.966;2023-12-20T02:13:28;5.70;99.90
23089;DHT22;11713;48.506;8.966;2023-12-20T02:15:57;5.70;99.90
23089;DHT22;11713;48.506;8.966;2023-12-20T02:18:23;5.70;99.90
23089;DHT22;11713;48.506;8.966;2023-12-20T02:20:49;5.70;99.90
23089;DHT22;11713;48.506;8.966;2023-12-20T02:23:15;5.70;99.90
23089;DHT22;11713;48.506;8.966;2023-12-20T02:25:41;5.70;99.90
23089;DHT22;11713;48.506;8.966;2023-12-20T02:28:06;5.70;99.90
23089;DHT22;11713;48.506;8.966;2023-12-20T02:30:32;5.70;99.90
23089;DHT22;11713;48.506;8.966;2023-12-20T02:33:00;5.70;99.90
23089;DHT22;11713;48.506;8.966;2023-12-20T02:35:27;5.70;99.90
23089;DHT22;11713;48.506;8.966;2023-12-20T02:37:54;5.70;99.90
23089;DHT22;11713;48.506;8.966;2023-12-20T02:40:20;5.70;99.90
23089;DHT22;11713;48.506;8.966;2023-12-20T02:42:46;5.60;99.90
23089;DHT22;11713;48.506;8.966;2023-12-20T02:45:12;5.60;99.90
23089;DHT22;11713;48.506;8.966;2023-12-20T02:47:38;5.60;99.90
23089;DHT22;11713;48.506;8.966;2023-12-20T02:50:04;5.60;99.90
23089;DHT22;11713;48.506;8.966;2023-12-20T02:52:29;5.60;99.90
23089;DHT22;11713;48.506;8.966;2023-12-20T02:54:55;5.60;99.90
23089;DHT22;11713;48.506;8.966;2023-12-20T02:57:21;5.60;99.90
23089;DHT22;11713;48.506;8.966;2023-12-20T02:59:47;5.60;99.90
23089;DHT22;11713;48.506;8.966;2023-12-20T03:02:13;5.60;99.90
23089;DHT22;11713;48.506;8.966;2023-12-20T03:04:40;5.60;99.90
23089;DHT22;11713;48.506;8.966;2023-12-20T03:07:05;5.70;99.90
23089;DHT22;11713;48.506;8.966;2023-12-20T03:09:31;5.70;99.90
23089;DHT22;11713;48.506;8.966;2023-12-20T03:11:57;5.60;99.90
23089;DHT22;11713;48.506;8.966;2023-12-20T03:14:23;5.70;99.90
23089;DHT22;11713;48.506;8.966;2023-12-20T03:16:49;5.70;99.90
23089;DHT22;11713;48.506;8.966;2023-12-20T03:19:16;5.70;99.90
23089;DHT22;11713;48.506;8.966;2023-12-20T03:21:42;5.60;99.90
23089;DHT22;11713;48.506;8.966;2023-12-20T03:24:08;5.60;99.90
23089;DHT22;11713;48.506;8.966;2023-12-20T03:26:33;5.60;99.90
23089;DHT22;11713;48.506;8.966;2023-12-20T03:28:59;5.60;99.90
23089;DHT22;11713;48.506;8.966;2023-12-20T03:31:25;5.60;99.90
23089;DHT22;11713;48.506;8.966;2023-12-20T03:33:51;5.60;99.90
23089;DHT22;11713;48.506;8.966;2023-12-20T03:36:19;5.60;99.90
23089;DHT22;11713;48.506;8.966;2023-12-20T03:38:45;5.60;99.90
23089;DHT22;11713;48.506;8.966;2023-12-20T03:41:11;5.60;99.90
23089;DHT22;11713;48.506;8.966;2023-12-20T03:43:37;5.60;99.90
23089;DHT22;11713;48.506;8.966;2023-12-20T03:46:03;5.60;99.90
23089;DHT22;11713;48.506;8.966;2023-12-20T03:48:32;5.60;99.90
23089;DHT22;11713;48.506;8.966;2023-12-20T03:50:58;5.60;99.90
23089;DHT22;11713;48.506;8.966;2023-12-20T03:53:24;5.60;99.90
23089;DHT22;11713;48.506;8.966;2023-12-20T03:55:50;5.60;99.90
23089;DHT22;11713;48.506;8.966;2023-12-20T03:58:15;5.60;99.90
23089;DHT22;11713;48.506;8.966;2023-12-20T04:00:41;5.60;99.90
23089;DHT22;11713;48.506;8.966;2023-12-20T04:03:07;5.60;99.90
23089;DHT22;11713;48.506;8.966;2023-12-20T04:05:33;5.60;99.90
23089;DHT22;11713;48.506;8.966;2023-12-20T04:08:01;5.60;99.90
23089;DHT22;11713;48.506;8.966;2023-12-20T04:10:27;5.60;99.90
23089;DHT22;11713;48.506;8.966;2023-12-20T04:12:53;5.60;99.90
23089;DHT22;11713;48.506;8.966;2023-12-20T04:15:20;5.50;99.90
23089;DHT22;11713;48.506;8.966;2023-12-20T04:17:46;5.50;99.90
23089;DHT22;11713;48.506;8.966;2023-12-20T04:20:12;5.50;99.90
23089;DHT22;11713;48.506;8.966;2023-12-20T04:22:37;5.50;99.90
23089;DHT22;11713;48.506;8.966;2023-12-20T04:25:03;5.50;99.90
23089;DHT22;11713;48.506;8.966;2023-12-20T04:27:29;5.50;99.90
23089;DHT22;11713;48.506;8.966;2023-12-20T04:29:55;5.40;99.90
23089;DHT22;11713;48.506;8.966;2023-12-20T04:32:21;5.40;99.90
23089;DHT22;11713;48.506;8.966;2023-12-20T04:34:47;5.40;99.90
23089;DHT22;11713;48.506;8.966;2023-12-20T04:37:13;5.40;99.90
23089;DHT22;11713;48.506;8.966;2023-12-20T04:39:38;5.40;99.90
23089;DHT22;11713;48.506;8.966;2023-12-20T04:42:04;5.40;99.90
23089;DHT22;11713;48.506;8.966;2023-12-20T04:44:30;5.40;99.90
23089;DHT22;11713;48.506;8.966;2023-12-20T04:46:58;5.40;99.90
23089;DHT22;11713;48.506;8.966;2023-12-20T04:49:24;5.30;99.90
23089;DHT22;11713;48.506;8.966;2023-12-20T04:51:50;5.30;99.90
23089;DHT22;11713;48.506;8.966;2023-12-20T04:54:16;5.30;99.90
23089;DHT22;11713;48.506;8.966;2023-12-20T04:56:41;5.30;99.90
23089;DHT22;11713;48.506;8.966;2023-12-20T04:59:07;5.30;99.90
23089;DHT22;11713;48.506;8.966;2023-12-20T05:01:35;5.30;99.90
23089;DHT22;11713;48.506;8.966;2023-12-20T05:04:02;5.30;99.90
23089;DHT22;11713;48.506;8.966;2023-12-20T05:06:29;5.30;99.90
23089;DHT22;11713;48.506;8.966;2023-12-20T05:08:55;5.30;99.90
23089;DHT22;11713;48.506;8.966;2023-12-20T05:11:21;5.30;99.90
23089;DHT22;11713;48.506;8.966;2023-12-20T05:13:47;5.30;99.90
23089;DHT22;11713;48.506;8.966;2023-12-20T05:16:13;5.30;99.90
23089;DHT22;11713;48.506;8.966;2023-12-20T05:18:40;5.30;99.90
23089;DHT22;11713;48.506;8.966;2023-12-20T05:21:06;5.30;99.90
23089;DHT22;11713;48.506;8.966;2023-12-20T05:23:33;5.30;99.90
23089;DHT22;11713;48.506;8.966;2023-12-20T05:25:59;5.20;99.90
23089;DHT22;11713;48.506;8.966;2023-12-20T05:28:25;5.30;99.90
23089;DHT22;11713;48.506;8.966;2023-12-20T05:30:51;5.20;99.90
23089;DHT22;11713;48.506;8.966;2023-12-20T05:33:17;5.20;99.90
23089;DHT22;11713;48.506;8.966;2023-12-20T05:35:43;5.20;99.90
23089;DHT22;11713;48.506;8.966;2023-12-20T05:38:09;5.20;99.90
23089;DHT22;11713;48.506;8.966;2023-12-20T05:40:35;5.20;99.90
23089;DHT22;11713;48.506;8.966;2023-12-20T05:43:00;5.20;99.90
23089;DHT22;11713;48.506;8.966;2023-12-20T05:45:26;5.20;99.90
23089;DHT22;11713;48.506;8.966;2023-12-20T05:47:52;5.20;99.90
23089;DHT22;11713;48.506;8.966;2023-12-20T05:50:18;5.20;99.90
23089;DHT22;11713;48.506;8.966;2023-12-20T05:52:44;5.20;99.90
23089;DHT22;11713;48.506;8.966;2023-12-20T05:55:10;5.20;99.90
23089;DHT22;11713;48.506;8.966;2023-12-20T05:57:35;5.20;99.90
23089;DHT22;11713;48.506;8.966;2023-12-20T06:00:01;5.20;99.90
23089;DHT22;11713;48.506;8.966;2023-12-20T06:02:27;5.30;99.90
23089;DHT22;11713;48.506;8.966;2023-12-20T06:04:53;5.30;99.90
23089;DHT22;11713;48.506;8.966;2023-12-20T06:07:19;5.30;99.90
23089;DHT22;11713;48.506;8.966;2023-12-20T06:09:45;5.30;99.90
23089;DHT22;11713;48.506;8.966;2023-12-20T06:12:10;5.30;99.90
23089;DHT22;11713;48.506;8.966;2023-12-20T06:14:36;5.30;99.90
23089;DHT22;11713;48.506;8.966;2023-12-20T06:17:02;5.20;99.90
23089;DHT22;11713;48.506;8.966;2023-12-20T06:19:28;5.30;99.90
23089;DHT22;11713;48.506;8.966;2023-12-20T06:21:54;5.30;99.90
23089;DHT22;11713;48.506;8.966;2023-12-20T06:24:20;5.30;99.90
23089;DHT22;11713;48.506;8.966;2023-12-20T06:26:47;5.30;99.90
23089;DHT22;11713;48.506;8.966;2023-12-20T06:29:13;5.30;99.90
23089;DHT22;11713;48.506;8.966;2023-12-20T06:31:40;5.30;99.90
23089;DHT22;11713;48.506;8.966;2023-12-20T06:34:09;5.30;99.90
23089;DHT22;11713;48.506;8.966;2023-12-20T06:36:35;5.20;99.90
23089;DHT22;11713;48.506;8.966;2023-12-20T06:39:00;5.20;99.90
23089;DHT22;11713;48.506;8.966;2023-12-20T06:41:26;5.20;99.90
23089;DHT22;11713;48.506;8.966;2023-12-20T06:43:52;5.20;99.90
23089;DHT22;11713;48.506;8.966;2023-12-20T06:46:18;5.20;99.90
23089;DHT22;11713;48.506;8.966;2023-12-20T06:48:44;5.20;99.90
23089;DHT22;11713;48.506;8.966;2023-12-20T06:51:15;5.30;99.90
23089;DHT22;11713;48.506;8.966;2023-12-20T06:53:42;5.30;99.90
23089;DHT22;11713;48.506;8.966;2023-12-20T06:56:10;5.30;99.90
23089;DHT22;11713;48.506;8.966;2023-12-20T06:58:36;5.30;99.90
23089;DHT22;11713;48.506;8.966;2023-12-20T07:01:03;5.20;99.90
23089;DHT22;11713;48.506;8.966;2023-12-20T07:03:30;5.20;99.90
23089;DHT22;11713;48.506;8.966;2023-12-20T07:05:55;5.20;99.90
23089;DHT22;11713;48.506;8.966;2023-12-20T07:08:21;5.20;99.90
23089;DHT22;11713;48.506;8.966;2023-12-20T07:10:47;5.10;99.90
23089;DHT22;11713;48.506;8.966;2023-12-20T07:13:13;5.10;99.90
23089;DHT22;11713;48.506;8.966;2023-12-20T07:15:39;5.00;99.90
23089;DHT22;11713;48.506;8.966;2023-12-20T07:18:05;5.00;99.90
23089;DHT22;11713;48.506;8.966;2023-12-20T07:20:32;5.10;99.90
23089;DHT22;11713;48.506;8.966;2023-12-20T07:22:57;5.10;99.90
23089;DHT22;11713;48.506;8.966;2023-12-20T07:25:23;5.10;99.90
23089;DHT22;11713;48.506;8.966;2023-12-20T07:27:49;5.10;99.90
23089;DHT22;11713;48.506;8.966;2023-12-20T07:30:15;5.20;99.90
23089;DHT22;11713;48.506;8.966;2023-12-20T07:32:41;5.20;99.90
23089;DHT22;11713;48.506;8.966;2023-12-20T07:35:07;5.20;99.90
23089;DHT22;11713;48.506;8.966;2023-12-20T07:37:32;5.30;99.90
23089;DHT22;11713;48.506;8.966;2023-12-20T07:39:58;5.30;99.90
23089;DHT22;11713;48.506;8.966;2023-12-20T07:42:24;5.30;99.90
23089;DHT22;11713;48.506;8.966;2023-12-20T07:44:50;5.30;99.90
23089;DHT22;11713;48.506;8.966;2023-12-20T07:47:15;5.30;99.90
23089;DHT22;11713;48.506;8.966;2023-12-20T07:49:44;5.30;99.90
23089;DHT22;11713;48.506;8.966;2023-12-20T07:52:10;5.30;99.90
23089;DHT22;11713;48.506;8.966;2023-12-20T07:54:36;5.30;99.90
23089;DHT22;11713;48.506;8.966;2023-12-20T07:57:02;5.30;99.90
23089;DHT22;11713;48.506;8.966;2023-12-20T07:59:28;5.30;99.90
23089;DHT22;11713;48.506;8.966;2023-12-20T08:01:53;5.30;99.90
23089;DHT22;11713;48.506;8.966;2023-12-20T08:04:19;5.30;99.90
23089;DHT22;11713;48.506;8.966;2023-12-20T08:06:45;5.30;99.90
23089;DHT22;11713;48.506;8.966;2023-12-20T08:09:11;5.30;99.90
23089;DHT22;11713;48.506;8.966;2023-12-20T08:11:36;5.30;99.90
23089;DHT22;11713;48.506;8.966;2023-12-20T08:14:02;5.30;99.90
23089;DHT22;11713;48.506;8.966;2023-12-20T08:16:28;5.30;99.90
23089;DHT22;11713;48.506;8.966;2023-12-20T08:18:54;5.40;99.90
23089;DHT22;11713;48.506;8.966;2023-12-20T08:21:20;5.40;99.90
23089;DHT22;11713;48.506;8.966;2023-12-20T08:23:47;5.40;99.90
23089;DHT22;11713;48.506;8.966;2023-12-20T08:26:13;5.40;99.90
23089;DHT22;11713;48.506;8.966;2023-12-20T08:28:39;5.50;99.90
23089;DHT22;11713;48.506;8.966;2023-12-20T08:31:05;5.50;99.90
23089;DHT22;11713;48.506;8.966;2023-12-20T08:33:31;5.50;99.90
23089;DHT22;11713;48.506;8.966;2023-12-20T08:35:56;5.50;99.90
23089;DHT22;11713;48.506;8.966;2023-12-20T08:38:22;5.60;99.90
23089;DHT22;11713;48.506;8.966;2023-12-20T08:40:48;5.60;99.90
23089;DHT22;11713;48.506;8.966;2023-12-20T08:43:14;5.60;99.90
23089;DHT22;11713;48.506;8.966;2023-12-20T08:45:41;5.60;99.90
23089;DHT22;11713;48.506;8.966;2023-12-20T08:48:07;5.60;99.90
23089;DHT22;11713;48.506;8.966;2023-12-20T08:50:33;5.60;99.90
23089;DHT22;11713;48.506;8.966;2023-12-20T08:52:59;5.60;99.90
23089;DHT22;11713;48.506;8.966;2023-12-20T08:55:25;5.70;99.90
23089;DHT22;11713;48.506;8.966;2023-12-20T08:57:52;5.70;99.90
23089;DHT22;11713;48.506;8.966;2023-12-20T09:00:18;5.70;99.90
23089;DHT22;11713;48.506;8.966;2023-12-20T09:02:46;5.70;99.90
23089;DHT22;11713;48.506;8.966;2023-12-20T09:05:12;5.70;99.90
23089;DHT22;11713;48.506;8.966;2023-12-20T09:07:37;5.70;99.90
23089;DHT22;11713;48.506;8.966;2023-12-20T09:10:03;5.70;99.90
23089;DHT22;11713;48.506;8.966;2023-12-20T09:12:29;5.70;99.90
23089;DHT22;11713;48.506;8.966;2023-12-20T09:14:55;5.70;99.90
23089;DHT22;11713;48.506;8.966;2023-12-20T09:17:21;5.60;99.90
23089;DHT22;11713;48.506;8.966;2023-12-20T09:19:48;5.60;99.90
23089;DHT22;11713;48.506;8.966;2023-12-20T09:22:14;5.50;99.90
23089;DHT22;11713;48.506;8.966;2023-12-20T09:24:40;5.40;99.90
23089;DHT22;11713;48.506;8.966;2023-12-20T09:27:06;5.40;99.90
23089;DHT22;11713;48.506;8.966;2023-12-20T09:29:32;5.40;99.90
23089;DHT22;11713;48.506;8.966;2023-12-20T09:31:58;5.40;99.90
23089;DHT22;11713;48.506;8.966;2023-12-20T09:34:24;5.40;99.90
23089;DHT22;11713;48.506;8.966;2023-12-20T09:36:51;5.40;99.90
23089;DHT22;11713;48.506;8.966;2023-12-20T09:39:18;5.40;99.90
23089;DHT22;11713;48.506;8.966;2023-12-20T09:41:45;5.40;99.90
23089;DHT22;11713;48.506;8.966;2023-12-20T09:44:16;5.50;99.90
23089;DHT22;11713;48.506;8.966;2023-12-20T09:46:45;5.60;99.90
23089;DHT22;11713;48.506;8.966;2023-12-20T09:49:12;5.60;99.90
23089;DHT22;11713;48.506;8.966;2023-12-20T09:51:39;5.70;99.90
23089;DHT22;11713;48.506;8.966;2023-12-20T09:54:06;5.70;99.90
23089;DHT22;11713;48.506;8.966;2023-12-20T09:56:33;5.70;99.90
23089;DHT22;11713;48.506;8.966;2023-12-20T09:58:59;5.80;99.90
23089;DHT22;11713;48.506;8.966;2023-12-20T10:01:25;5.70;99.90
23089;DHT22;11713;48.506;8.966;2023-12-20T10:03:54;5.70;99.90
23089;DHT22;11713;48.506;8.966;2023-12-20T10:06:21;5.80;99.90
23089;DHT22;11713;48.506;8.966;2023-12-20T10:08:47;5.90;99.90
23089;DHT22;11713;48.506;8.966;2023-12-20T10:11:13;6.00;99.90
23089;DHT22;11713;48.506;8.966;2023-12-20T10:13:40;6.20;99.90
23089;DHT22;11713;48.506;8.966;2023-12-20T10:16:09;6.40;99.90
23089;DHT22;11713;48.506;8.966;2023-12-20T10:18:35;6.50;99.90
23089;DHT22;11713;48.506;8.966;2023-12-20T10:21:01;6.50;99.90
23089;DHT22;11713;48.506;8.966;2023-12-20T10:23:29;6.50;99.90
23089;DHT22;11713;48.506;8.966;2023-12-20T10:26:00;6.50;99.90
23089;DHT22;11713;48.506;8.966;2023-12-20T10:28:26;6.50;99.90
23089;DHT22;11713;48.506;8.966;2023-12-20T10:30:55;6.50;99.90
23089;DHT22;11713;48.506;8.966;2023-12-20T10:33:24;6.40;99.90
23089;DHT22;11713;48.506;8.966;2023-12-20T10:35:52;6.40;99.90
23089;DHT22;11713;48.506;8.966;2023-12-20T10:38:18;6.40;99.90
23089;DHT22;11713;48.506;8.966;2023-12-20T10:40:45;6.40;99.90
23089;DHT22;11713;48.506;8.966;2023-12-20T10:43:12;6.40;99.90
23089;DHT22;11713;48.506;8.966;2023-12-20T10:45:38;6.40;99.90
23089;DHT22;11713;48.506;8.966;2023-12-20T10:48:04;6.60;99.90
23089;DHT22;11713;48.506;8.966;2023-12-20T10:50:30;6.60;99.90
23089;DHT22;11713;48.506;8.966;2023-12-20T10:52:57;6.70;99.90
23089;DHT22;11713;48.506;8.966;2023-12-20T10:55:24;6.80;99.90
23089;DHT22;11713;48.506;8.966;2023-12-20T10:57:51;6.90;99.90
23089;DHT22;11713;48.506;8.966;2023-12-20T11:00:21;7.00;99.90
23089;DHT22;11713;48.506;8.966;2023-12-20T11:02:49;7.00;99.90
23089;DHT22;11713;48.506;8.966;2023-12-20T11:08:20;7.00;99.90
23089;DHT22;11713;48.506;8.966;2023-12-20T11:13:28;6.90;99.90
23089;DHT22;11713;48.506;8.966;2023-12-20T11:15:55;6.90;99.90
23089;DHT22;11713;48.506;8.966;2023-12-20T11:18:28;7.00;99.90
23089;DHT22;11713;48.506;8.966;2023-12-20T11:20:55;7.10;99.90
23089;DHT22;11713;48.506;8.966;2023-12-20T11:23:21;7.10;99.90
23089;DHT22;11713;48.506;8.966;2023-12-20T11:25:56;7.10;99.90
23089;DHT22;11713;48.506;8.966;2023-12-20T11:28:25;7.20;99.90
23089;DHT22;11713;48.506;8.966;2023-12-20T11:30:53;7.20;99.90
23089;DHT22;11713;48.506;8.966;2023-12-20T11:33:25;7.30;99.90
23089;DHT22;11713;48.506;8.966;2023-12-20T11:35:51;7.40;99.90
23089;DHT22;11713;48.506;8.966;2023-12-20T11:38:24;7.50;99.90
23089;DHT22;11713;48.506;8.966;2023-12-20T11:40:54;7.50;99.90
23089;DHT22;11713;48.506;8.966;2023-12-20T11:43:35;7.50;99.90
23089;DHT22;11713;48.506;8.966;2023-12-20T11:46:09;7.40;99.90
23089;DHT22;11713;48.506;8.966;2023-12-20T11:48:38;7.40;99.90
23089;DHT22;11713;48.506;8.966;2023-12-20T11:51:11;7.30;99.90
23089;DHT22;11713;48.506;8.966;2023-12-20T11:53:39;7.10;99.90
23089;DHT22;11713;48.506;8.966;2023-12-20T11:56:11;7.00;99.90
23089;DHT22;11713;48.506;8.966;2023-12-20T11:58:38;7.00;99.90
23089;DHT22;11713;48.506;8.966;2023-12-20T12:01:05;6.90;99.90
23089;DHT22;11713;48.506;8.966;2023-12-20T12:03:33;6.80;99.90
23089;DHT22;11713;48.506;8.966;2023-12-20T12:06:00;6.80;99.90
23089;DHT22;11713;48.506;8.966;2023-12-20T12:08:27;6.60;99.90
23089;DHT22;11713;48.506;8.966;2023-12-20T12:10:55;6.50;99.90
23089;DHT22;11713;48.506;8.966;2023-12-20T12:13:23;6.40;99.90
23089;DHT22;11713;48.506;8.966;2023-12-20T12:15:55;6.30;99.90
23089;DHT22;11713;48.506;8.966;2023-12-20T12:18:21;6.20;99.90
23089;DHT22;11713;48.506;8.966;2023-12-20T12:20:47;6.10;99.90
23089;DHT22;11713;48.506;8.966;2023-12-20T12:23:13;6.10;99.90
23089;DHT22;11713;48.506;8.966;2023-12-20T12:25:39;6.10;99.90
23089;DHT22;11713;48.506;8.966;2023-12-20T12:28:05;6.00;99.90
23089;DHT22;11713;48.506;8.966;2023-12-20T12:30:31;6.00;99.90
23089;DHT22;11713;48.506;8.966;2023-12-20T12:32:57;6.00;99.90
23089;DHT22;11713;48.506;8.966;2023-12-20T12:35:23;6.00;99.90
23089;DHT22;11713;48.506;8.966;2023-12-20T12:37:49;6.00;99.90
23089;DHT22;11713;48.506;8.966;2023-12-20T12:40:17;6.00;99.90
23089;DHT22;11713;48.506;8.966;2023-12-20T12:42:44;6.00;99.90
23089;DHT22;11713;48.506;8.966;2023-12-20T12:45:10;5.90;99.90
23089;DHT22;11713;48.506;8.966;2023-12-20T12:47:40;5.90;99.90
23089;DHT22;11713;48.506;8.966;2023-12-20T12:50:07;6.00;99.90
23089;DHT22;11713;48.506;8.966;2023-12-20T12:52:33;5.90;99.90
23089;DHT22;11713;48.506;8.966;2023-12-20T12:55:01;6.00;99.90
23089;DHT22;11713;48.506;8.966;2023-12-20T12:57:27;6.00;99.90
23089;DHT22;11713;48.506;8.966;2023-12-20T12:59:53;6.00;99.90
23089;DHT22;11713;48.506;8.966;2023-12-20T13:02:19;5.90;99.90
23089;DHT22;11713;48.506;8.966;2023-12-20T13:04:45;6.00;99.90
23089;DHT22;11713;48.506;8.966;2023-12-20T13:07:17;6.00;99.90
23089;DHT22;11713;48.506;8.966;2023-12-20T13:09:48;6.00;99.90
23089;DHT22;11713;48.506;8.966;2023-12-20T13:12:16;6.00;99.90
23089;DHT22;11713;48.506;8.966;2023-12-20T13:14:42;6.10;99.90
23089;DHT22;11713;48.506;8.966;2023-12-20T13:17:07;6.10;99.90
23089;DHT22;11713;48.506;8.966;2023-12-20T13:19:33;6.10;99.90
23089;DHT22;11713;48.506;8.966;2023-12-20T13:21:59;6.10;99.90
23089;DHT22;11713;48.506;8.966;2023-12-20T13:24:25;6.10;99.90
23089;DHT22;11713;48.506;8.966;2023-12-20T13:26:51;6.10;99.90
23089;DHT22;11713;48.506;8.966;2023-12-20T13:29:16;6.20;99.90
23089;DHT22;11713;48.506;8.966;2023-12-20T13:31:42;6.30;99.90
23089;DHT22;11713;48.506;8.966;2023-12-20T13:34:08;6.40;99.90
23089;DHT22;11713;48.506;8.966;2023-12-20T13:36:34;6.40;99.90
23089;DHT22;11713;48.506;8.966;2023-12-20T13:39:02;6.50;99.90
23089;DHT22;11713;48.506;8.966;2023-12-20T13:41:31;6.60;99.90
23089;DHT22;11713;48.506;8.966;2023-12-20T13:43:57;6.50;99.90
23089;DHT22;11713;48.506;8.966;2023-12-20T13:46:23;6.50;99.90
23089;DHT22;11713;48.506;8.966;2023-12-20T13:48:49;6.40;99.90
23089;DHT22;11713;48.506;8.966;2023-12-20T13:51:15;6.40;99.90
23089;DHT22;11713;48.506;8.966;2023-12-20T13:53:41;6.40;99.90
23089;DHT22;11713;48.506;8.966;2023-12-20T13:56:07;6.30;99.90
23089;DHT22;11713;48.506;8.966;2023-12-20T13:58:33;6.30;99.90
23089;DHT22;11713;48.506;8.966;2023-12-20T14:00:59;6.30;99.90
23089;DHT22;11713;48.506;8.966;2023-12-20T14:03:24;6.30;99.90
23089;DHT22;11713;48.506;8.966;2023-12-20T14:05:50;6.20;99.90
23089;DHT22;11713;48.506;8.966;2023-12-20T14:08:16;6.20;99.90
23089;DHT22;11713;48.506;8.966;2023-12-20T14:10:42;6.20;99.90
23089;DHT22;11713;48.506;8.966;2023-12-20T14:13:08;6.20;99.90
23089;DHT22;11713;48.506;8.966;2023-12-20T14:15:35;6.20;99.90
23089;DHT22;11713;48.506;8.966;2023-12-20T14:18:06;6.20;99.90
23089;DHT22;11713;48.506;8.966;2023-12-20T14:20:35;6.10;99.90
23089;DHT22;11713;48.506;8.966;2023-12-20T14:23:09;6.10;99.90
23089;DHT22;11713;48.506;8.966;2023-12-20T14:25:38;6.00;99.90
23089;DHT22;11713;48.506;8.966;2023-12-20T14:28:04;6.00;99.90
23089;DHT22;11713;48.506;8.966;2023-12-20T14:30:30;6.00;99.90
23089;DHT22;11713;48.506;8.966;2023-12-20T14:33:01;5.90;99.90
23089;DHT22;11713;48.506;8.966;2023-12-20T14:35:30;5.90;99.90
23089;DHT22;11713;48.506;8.966;2023-12-20T14:37:56;5.80;99.90
23089;DHT22;11713;48.506;8.966;2023-12-20T14:40:23;5.80;99.90
23089;DHT22;11713;48.506;8.966;2023-12-20T14:42:49;5.70;99.90
23089;DHT22;11713;48.506;8.966;2023-12-20T14:45:17;5.70;99.90
23089;DHT22;11713;48.506;8.966;2023-12-20T14:47:50;5.70;99.90
23089;DHT22;11713;48.506;8.966;2023-12-20T14:50:16;5.70;99.90
23089;DHT22;11713;48.506;8.966;2023-12-20T14:52:46;5.60;99.90
23089;DHT22;11713;48.506;8.966;2023-12-20T14:55:14;5.60;99.90
23089;DHT22;11713;48.506;8.966;2023-12-20T14:57:49;5.60;99.90
23089;DHT22;11713;48.506;8.966;2023-12-20T15:00:16;5.50;99.90
23089;DHT22;11713;48.506;8.966;2023-12-20T15:02:46;5.50;99.90
23089;DHT22;11713;48.506;8.966;2023-12-20T15:05:12;5.50;99.90
23089;DHT22;11713;48.506;8.966;2023-12-20T15:07:39;5.40;99.90
23089;DHT22;11713;48.506;8.966;2023-12-20T15:10:06;5.40;99.90
23089;DHT22;11713;48.506;8.966;2023-12-20T15:12:32;5.40;99.90
23089;DHT22;11713;48.506;8.966;2023-12-20T15:14:59;5.40;99.90
23089;DHT22;11713;48.506;8.966;2023-12-20T15:17:26;5.40;99.90
23089;DHT22;11713;48.506;8.966;2023-12-20T15:19:52;5.40;99.90
23089;DHT22;11713;48.506;8.966;2023-12-20T15:22:18;5.30;99.90
23089;DHT22;11713;48.506;8.966;2023-12-20T15:24:45;5.40;99.90
23089;DHT22;11713;48.506;8.966;2023-12-20T15:27:13;5.30;99.90
23089;DHT22;11713;48.506;8.966;2023-12-20T15:29:39;5.30;99.90
23089;DHT22;11713;48.506;8.966;2023-12-20T15:32:05;5.30;99.90
23089;DHT22;11713;48.506;8.966;2023-12-20T15:34:31;5.30;99.90
23089;DHT22;11713;48.506;8.966;2023-12-20T15:36:57;5.30;99.90
23089;DHT22;11713;48.506;8.966;2023-12-20T15:39:23;5.30;99.90
23089;DHT22;11713;48.506;8.966;2023-12-20T15:41:49;5.30;99.90
23089;DHT22;11713;48.506;8.966;2023-12-20T15:44:15;5.20;99.90
23089;DHT22;11713;48.506;8.966;2023-12-20T15:46:41;5.20;99.90